TimeEST,TemperatureF,Dew PointF,Humidity,Sea Level PressureIn,VisibilityMPH,Wind Direction,Wind SpeedMPH,Gust SpeedMPH,PrecipitationIn,Events,Conditions,WindDirDegrees,DateUTC
12:53 AM,-9999,-9999,N/A,30.13,10.0,Calm,Calm,-,N/A,,Clear,0,2012-11-26 05:53:00
1:53 AM,-9999,-9999,N/A,30.12,10.0,NNW,3.5,-,N/A,,Clear,340,2012-11-26 06:53:00
2:53 AM,-9999,-9999,N/A,30.11,10.0,Calm,Calm,-,N/A,,Clear,0,2012-11-26 07:53:00
3:53 AM,-9999,-9999,N/A,30.11,10.0,NW,3.5,-,N/A,,Clear,320,2012-11-26 08:53:00
4:53 AM,-9999,-9999,N/A,30.11,10.0,NNW,3.5,-,N/A,,Clear,340,2012-11-26 09:53:00
5:53 AM,-9999,-9999,N/A,30.13,10.0,North,5.8,-,N/A,,Partly Cloudy,350,2012-11-26 10:53:00
6:22 AM,66.2,57.2,73,30.14,10.0,NNW,3.5,-,N/A,,Scattered Clouds,340,2012-11-26 11:22:00
6:53 AM,66.2,57.0,72,30.14,10.0,North,5.8,-,N/A,,Scattered Clouds,350,2012-11-26 11:53:00
7:53 AM,66.2,60.1,81,30.15,10.0,North,4.6,-,N/A,,Scattered Clouds,360,2012-11-26 12:53:00
8:53 AM,66.2,60.1,81,30.17,10.0,North,9.2,-,N/A,,Scattered Clouds,10,2012-11-26 13:53:00
9:53 AM,69.8,61.0,73,30.18,10.0,North,8.1,-,N/A,,Scattered Clouds,10,2012-11-26 14:53:00
10:53 AM,73.4,61.0,65,30.19,10.0,NNE,8.1,-,N/A,,Partly Cloudy,20,2012-11-26 15:53:00
11:53 AM,73.4,61.0,65,30.17,10.0,North,9.2,-,N/A,,Partly Cloudy,360,2012-11-26 16:53:00
12:53 PM,73.4,62.1,68,30.14,10.0,North,8.1,-,N/A,,Partly Cloudy,360,2012-11-26 17:53:00
1:53 PM,73.4,63.0,70,30.12,10.0,NNE,6.9,-,N/A,,Partly Cloudy,30,2012-11-26 18:53:00
2:53 PM,71.6,63.0,74,30.10,10.0,NNE,8.1,-,N/A,,Partly Cloudy,20,2012-11-26 19:53:00
3:53 PM,71.6,64.0,77,30.10,10.0,NNE,6.9,-,N/A,,Partly Cloudy,20,2012-11-26 20:53:00
4:53 PM,69.8,64.0,82,30.11,10.0,NNE,5.8,-,N/A,,Partly Cloudy,30,2012-11-26 21:53:00
5:53 PM,68.0,64.0,87,30.12,10.0,NNE,5.8,-,N/A,,Partly Cloudy,30,2012-11-26 22:53:00
6:53 PM,68.0,66.0,93,30.12,10.0,NE,3.5,-,N/A,,Partly Cloudy,50,2012-11-26 23:53:00
7:53 PM,66.2,64.9,96,30.14,10.0,ENE,3.5,-,N/A,,Partly Cloudy,60,2012-11-27 00:53:00
8:53 PM,68.0,64.9,90,30.16,10.0,ENE,3.5,-,N/A,,Mostly Cloudy,60,2012-11-27 01:53:00
9:53 PM,68.0,64.9,90,30.16,10.0,ESE,11.5,-,0.00,,Mostly Cloudy,110,2012-11-27 02:53:00
10:53 PM,-9999,-9999,N/A,30.16,10.0,SE,11.5,-,0.00,,Overcast,130,2012-11-27 03:53:00
11:53 PM,-9999,-9999,N/A,30.15,10.0,ESE,13.8,-,N/A,,Overcast,120,2012-11-27 04:53:00